createdAt,value
2023-04-21T00:02:17.512Z,-11154.59
2023-04-21T00:05:23.732Z,-11135.75
2023-04-21T00:08:29.963Z,-11131.53
2023-04-21T00:11:36.201Z,-11144.06
2023-04-21T00:14:43.717Z,-11146.44
2023-04-21T00:17:49.996Z,-11142.94
2023-04-21T00:20:56.429Z,-11145.31
2023-04-21T00:24:03.009Z,-11137.59
2023-04-21T00:27:08.929Z,-11123.41
2023-04-21T00:30:16.795Z,-11127.91
2023-04-21T00:33:22.967Z,-11120.16
2023-04-21T00:36:29.340Z,-11126.78
2023-04-21T00:39:35.320Z,-11135.19
2023-04-21T00:42:41.340Z,-11133.09
2023-04-21T00:45:48.614Z,-11131.13
2023-04-21T00:48:54.799Z,-11133.78
2023-04-21T00:52:01.107Z,-11127.63
2023-04-21T00:55:08.594Z,-11128.31
2023-04-21T00:58:14.797Z,-11125.38
2023-04-21T01:01:22.857Z,-11124.09
2023-04-21T01:04:35.570Z,-11125.94
2023-04-21T01:07:41.699Z,-11119.75
2023-04-21T01:10:47.734Z,-11121.44
2023-04-21T01:13:54.605Z,-11109.34
2023-04-21T01:17:05.386Z,-11107.41
2023-04-21T01:20:13.632Z,-11086.31
2023-04-21T01:23:21.374Z,-11080.44
2023-04-21T01:26:27.585Z,-11078.88
2023-04-21T01:29:35.018Z,-11080.44
2023-04-21T01:32:41.048Z,-11089.13
2023-04-21T01:35:47.302Z,-11104.16
2023-04-21T01:38:54.987Z,-11089.28
2023-04-21T01:42:01.413Z,-11070.03
2023-04-21T01:45:08.949Z,-11079.88
2023-04-21T01:48:15.531Z,-11082.81
2023-04-21T01:51:21.817Z,-11087.31
2023-04-21T01:54:29.179Z,-11091.53
2023-04-21T01:57:35.585Z,-11094.19
2023-04-21T02:00:41.962Z,-11067.37
2023-04-21T02:03:48.518Z,-11088.56
2023-04-21T02:06:55.077Z,-11082.41
2023-04-21T02:10:03.053Z,-11090.25
2023-04-21T02:13:09.252Z,-11070.88
2023-04-21T02:16:15.505Z,-11076.34
2023-04-21T02:19:22.000Z,-11079.31
2023-04-21T02:22:28.317Z,-11081.28
2023-04-21T02:25:35.607Z,-11079.72
2023-04-21T02:28:41.842Z,-11070.59
2023-04-21T02:32:00.847Z,-11074.25
2023-04-21T02:35:11.699Z,-11054.88
2023-04-21T02:38:17.431Z,-11080.44
2023-04-21T02:41:24.819Z,-11081.00
2023-04-21T02:44:31.302Z,-11079.03
2023-04-21T02:47:37.231Z,-11083.09
2023-04-21T02:50:44.535Z,-11081.97
2023-04-21T02:53:50.782Z,-11075.81
2023-04-21T02:56:58.512Z,-11072.28
2023-04-21T03:00:06.090Z,-11076.34
2023-04-21T03:03:12.394Z,-11056.56
2023-04-21T03:06:18.764Z,-11043.09
2023-04-21T03:09:24.967Z,-11033.97
2023-04-21T03:12:32.613Z,-11035.53
2023-04-21T03:15:38.961Z,-11038.59
2023-04-21T03:18:45.109Z,-11041.84
2023-04-21T03:21:51.318Z,-11043.09
2023-04-21T03:24:57.714Z,-11025.00
2023-04-21T03:28:05.254Z,-11024.59
2023-04-21T03:31:11.298Z,-11050.69
2023-04-21T03:34:17.354Z,-11030.91
2023-04-21T03:37:23.335Z,-11047.03
2023-04-21T03:40:30.182Z,-11042.81
2023-04-21T03:43:37.945Z,-11049.00
2023-04-21T03:46:44.276Z,-11053.63
2023-04-21T03:49:50.508Z,-11059.81
2023-04-21T03:52:56.860Z,-11053.47
2023-04-21T03:56:03.147Z,-11043.66
2023-04-21T03:59:10.879Z,-11054.47
2023-04-21T04:02:17.293Z,-11026.41
2023-04-21T04:05:23.654Z,-11017.84
2023-04-21T04:08:29.797Z,-11023.75
2023-04-21T04:11:36.352Z,-11035.94
2023-04-21T04:14:43.876Z,-11050.69
2023-04-21T04:17:50.466Z,-11060.78
2023-04-21T04:20:56.908Z,-11059.38
2023-04-21T04:24:05.365Z,-11065.84
2023-04-21T04:27:14.044Z,-11053.19
2023-04-21T04:30:21.607Z,-11064.44
2023-04-21T04:33:27.585Z,-11083.22
2023-04-21T04:36:33.669Z,-11075.66
2023-04-21T04:39:40.046Z,-11073.28
2023-04-21T04:42:48.977Z,-11073.56
2023-04-21T04:45:56.782Z,-11081.84
2023-04-21T04:49:03.302Z,-11082.69
2023-04-21T04:52:09.526Z,-11096.16
2023-04-21T04:55:15.524Z,-11095.31
2023-04-21T04:58:22.332Z,-11091.66
2023-04-21T05:01:31.083Z,-11113.44
2023-04-21T05:04:37.602Z,-11128.19
2023-04-21T05:07:43.718Z,-11131.53
2023-04-21T05:10:50.061Z,-11140.69
2023-04-21T05:13:56.773Z,-11151.78
2023-04-21T05:17:04.344Z,-11150.38
2023-04-21T05:20:11.527Z,-11163.44
2023-04-21T05:23:17.622Z,-11170.91
2023-04-21T05:26:24.040Z,-11171.75
2023-04-21T05:29:30.320Z,-11179.03
2023-04-21T05:32:37.740Z,-11183.13
2023-04-21T05:35:44.072Z,-11184.38
2023-04-21T05:38:50.410Z,-11206.31
2023-04-21T05:41:56.561Z,-11208.28
2023-04-21T05:45:02.774Z,-11209.41
2023-04-21T05:48:12.277Z,-11222.63
2023-04-21T05:51:19.558Z,-11220.66
2023-04-21T05:54:25.642Z,-11237.84
2023-04-21T05:57:31.627Z,-11248.25
2023-04-21T06:00:37.812Z,-11257.81
2023-04-21T06:03:45.476Z,-11257.81
2023-04-21T06:06:51.497Z,-11246.00
2023-04-21T06:09:58.073Z,-11246.56
2023-04-21T06:13:04.121Z,-11251.63
2023-04-21T06:16:10.216Z,-11271.47
2023-04-21T06:19:17.720Z,-11276.25
2023-04-21T06:22:24.081Z,-11245.16
2023-04-21T06:25:30.372Z,-11266.69
2023-04-21T06:28:39.350Z,-11269.06
2023-04-21T06:31:45.831Z,-11271.03
2023-04-21T06:34:53.439Z,-11290.75
2023-04-21T06:37:59.695Z,-11292.44
2023-04-21T06:41:06.672Z,-11296.09
2023-04-21T06:44:14.280Z,-11302.16
2023-04-21T06:47:20.650Z,-11290.88
2023-04-21T06:50:28.394Z,-11292.28
2023-04-21T06:53:34.487Z,-11292.00
2023-04-21T06:56:42.965Z,-11307.91
2023-04-21T06:59:49.254Z,-11315.94
2023-04-21T07:02:55.412Z,-11322.28
2023-04-21T07:06:03.001Z,-11327.63
2023-04-21T07:09:09.261Z,-11322.41
2023-04-21T07:12:16.109Z,-11303.69
2023-04-21T07:15:22.192Z,-11329.03
2023-04-21T07:18:28.075Z,-11362.00
2023-04-21T07:21:36.408Z,-11349.88
2023-04-21T07:24:42.639Z,-11353.41
2023-04-21T07:27:48.917Z,-11349.31
2023-04-21T07:30:54.963Z,-11370.72
2023-04-21T07:34:01.091Z,-11373.00
2023-04-21T07:37:08.707Z,-11350.44
2023-04-21T07:40:15.327Z,-11360.88
2023-04-21T07:43:21.613Z,-11375.66
2023-04-21T07:46:30.558Z,-11375.25
2023-04-21T07:49:36.928Z,-11363.13
2023-04-21T07:52:44.842Z,-11357.91
2023-04-21T07:55:51.109Z,-11366.22
2023-04-21T07:58:57.681Z,-11365.94
2023-04-21T08:02:04.156Z,-11365.53
2023-04-21T08:05:10.778Z,-11377.22
2023-04-21T08:08:20.559Z,-11374.13
2023-04-21T08:11:28.641Z,-11390.19
2023-04-21T08:14:35.058Z,-11385.66
2023-04-21T08:17:41.478Z,-11390.88
2023-04-21T08:20:48.205Z,-11382.00
2023-04-21T08:23:56.603Z,-11392.16
2023-04-21T08:27:03.556Z,-11412.44
2023-04-21T08:30:11.388Z,-11390.31
2023-04-21T08:33:17.913Z,-11393.28
2023-04-21T08:36:29.536Z,-11388.47
2023-04-21T08:39:38.100Z,-11405.69
2023-04-21T08:42:44.846Z,-11401.72
2023-04-21T08:45:54.397Z,-11411.88
2023-04-21T08:49:01.508Z,-11420.19
2023-04-21T08:52:08.162Z,-11403.72
2023-04-21T08:55:16.883Z,-11398.34
2023-04-21T08:58:23.868Z,-11399.19
2023-04-21T09:01:30.421Z,-11414.56
2023-04-21T09:04:36.818Z,-11404.84
2023-04-21T09:07:43.118Z,-11422.88
2023-04-21T09:10:53.201Z,-11441.19
2023-04-21T09:14:01.493Z,-11443.59
2023-04-21T09:17:07.868Z,-11449.09
2023-04-21T09:20:16.655Z,-11447.69
2023-04-21T09:23:23.216Z,-11448.81
2023-04-21T09:26:31.857Z,-11449.22
2023-04-21T09:29:38.866Z,-11449.09
2023-04-21T09:32:44.965Z,-11441.75
2023-04-21T09:35:51.572Z,-11482.09
2023-04-21T09:42:12.687Z,-11461.38
2023-04-21T09:48:33.368Z,-11468.97
2023-04-21T09:52:05.395Z,-11511.16
2023-04-21T09:55:12.766Z,-11458.97
2023-04-21T09:58:24.868Z,-11473.34
2023-04-21T10:01:32.238Z,-11489.56
2023-04-21T10:04:39.386Z,-11449.66
2023-04-21T10:07:46.993Z,-11454.88
2023-04-21T10:10:54.639Z,-11438.09
2023-04-21T10:14:02.309Z,-11424.56
2023-04-21T10:17:10.237Z,-11437.41
2023-04-21T10:20:17.212Z,-11421.75
2023-04-21T10:23:31.902Z,-11439.78
2023-04-21T10:26:38.065Z,-11479.28
2023-04-21T10:29:56.150Z,-11454.75
2023-04-21T10:33:04.847Z,-11457.56
2023-04-21T10:36:15.843Z,-11468.28
2023-04-21T10:39:31.527Z,-11501.00
2023-04-21T10:42:38.173Z,-11461.22
2023-04-21T10:45:47.239Z,-11482.94
2023-04-21T10:48:54.290Z,-11438.25
2023-04-21T10:52:12.383Z,-11464.88
2023-04-21T10:55:18.958Z,-11480.69
2023-04-21T10:58:26.093Z,-11468.13
2023-04-21T11:01:33.907Z,-11498.16
2023-04-21T11:04:45.466Z,-11517.50
2023-04-21T11:07:52.770Z,-11504.66
2023-04-21T11:10:58.875Z,-11502.41
2023-04-21T11:14:04.885Z,-11475.75
2023-04-21T11:17:14.851Z,-11477.03
2023-04-21T11:20:21.132Z,-11469.41
2023-04-21T11:23:27.320Z,-11523.72
2023-04-21T11:26:34.936Z,-11518.22
2023-04-21T11:29:41.543Z,-11474.47
2023-04-21T11:32:55.833Z,-11507.34
2023-04-21T11:36:05.818Z,-11505.22
2023-04-21T11:39:15.894Z,-11507.63
2023-04-21T11:42:23.470Z,-11509.19
2023-04-21T11:45:30.601Z,-11482.66
2023-04-21T11:48:38.384Z,-11473.06
2023-04-21T11:51:46.962Z,-11449.22
2023-04-21T11:54:57.996Z,-11501.56
2023-04-21T11:58:04.636Z,-11504.38
2023-04-21T12:01:12.086Z,-11496.75
2023-04-21T12:04:21.526Z,-11489.44
2023-04-21T12:07:27.609Z,-11486.19
2023-04-21T12:10:34.133Z,-11481.53
2023-04-21T12:13:41.993Z,-11472.22
2023-04-21T12:16:50.404Z,-11488.03
2023-04-21T12:20:06.142Z,-11481.81
2023-04-21T12:23:12.317Z,-11453.03
2023-04-21T12:26:18.612Z,-11488.44
2023-04-21T12:29:24.707Z,-11488.44
2023-04-21T12:32:31.012Z,-11466.16
2023-04-21T12:35:39.230Z,-11470.81
2023-04-21T12:38:45.809Z,-11466.31
2023-04-21T12:41:52.589Z,-11499.03
2023-04-21T12:44:58.926Z,-11471.09
2023-04-21T12:48:05.588Z,-11475.06
2023-04-21T12:51:13.550Z,-11471.37
2023-04-21T12:54:20.073Z,-11493.09
2023-04-21T12:57:26.604Z,-11463.75
2023-04-21T13:00:35.225Z,-11474.34
2023-04-21T13:03:41.888Z,-11490.41
2023-04-21T13:06:49.808Z,-11460.81
2023-04-21T13:09:56.236Z,-11449.38
2023-04-21T13:13:02.415Z,-11446.28
2023-04-21T13:16:09.288Z,-11471.37
2023-04-21T13:19:15.649Z,-11441.19
2023-04-21T13:22:23.712Z,-11442.63
2023-04-21T13:25:30.207Z,-11455.59
2023-04-21T13:28:36.473Z,-11443.75
2023-04-21T13:31:42.617Z,-11445.84
2023-04-21T13:34:48.827Z,-11438.09
2023-04-21T13:37:56.457Z,-11432.75
2023-04-21T13:41:02.507Z,-11442.06
2023-04-21T13:44:08.802Z,-11433.88
2023-04-21T13:47:14.943Z,-11445.56
2023-04-21T13:50:21.430Z,-11438.66
2023-04-21T13:53:29.759Z,-11475.06
2023-04-21T13:56:36.299Z,-11475.75
2023-04-21T13:59:42.708Z,-11452.47
2023-04-21T14:02:49.534Z,-11465.16
2023-04-21T14:05:57.168Z,-11478.84
2023-04-21T14:09:06.575Z,-11425.69
2023-04-21T14:12:13.089Z,-11420.91
2023-04-21T14:15:19.443Z,-11414.97
2023-04-21T14:18:25.891Z,-11407.38
2023-04-21T14:21:32.782Z,-11413.28
2023-04-21T14:24:41.104Z,-11425.28
2023-04-21T14:27:47.388Z,-11413.56
2023-04-21T14:30:53.497Z,-11408.78
2023-04-21T14:33:59.573Z,-11441.19
2023-04-21T14:37:05.996Z,-11432.88
2023-04-21T14:40:14.418Z,-11443.19
2023-04-21T14:43:20.587Z,-11435.56
2023-04-21T14:46:29.228Z,-11454.75
2023-04-21T14:49:36.252Z,-11457.56
2023-04-21T14:52:42.891Z,-11425.97
2023-04-21T14:55:51.435Z,-11423.59
2023-04-21T14:58:58.602Z,-11413.28
2023-04-21T15:02:05.499Z,-11411.03
2023-04-21T15:05:12.312Z,-11413.56
2023-04-21T15:08:18.539Z,-11413.56
2023-04-21T15:11:27.024Z,-11407.94
2023-04-21T15:14:33.626Z,-11411.03
2023-04-21T15:17:39.982Z,-11413.84
2023-04-21T15:20:46.306Z,-11407.66
2023-04-21T15:23:52.181Z,-11401.72
2023-04-21T15:26:59.904Z,-11397.78
2023-04-21T15:30:07.161Z,-11401.88
2023-04-21T15:33:13.393Z,-11406.09
2023-04-21T15:36:19.757Z,-11400.03
2023-04-21T15:39:25.896Z,-11400.59
2023-04-21T15:42:33.788Z,-11399.47
2023-04-21T15:45:41.134Z,-11402.28
2023-04-21T15:48:47.389Z,-11407.09
2023-04-21T15:51:53.653Z,-11408.63
2023-04-21T15:54:59.926Z,-11408.91
2023-04-21T15:58:07.629Z,-11412.88
2023-04-21T16:01:14.115Z,-11407.94
2023-04-21T16:04:20.726Z,-11407.66
2023-04-21T16:07:28.586Z,-11407.38
2023-04-21T16:10:34.780Z,-11403.00
2023-04-21T16:13:42.673Z,-11405.81
2023-04-21T16:16:49.091Z,-11395.81
2023-04-21T16:19:55.370Z,-11399.47
2023-04-21T16:23:01.799Z,-11397.50
2023-04-21T16:26:09.262Z,-11396.09
2023-04-21T16:29:17.018Z,-11381.16
2023-04-21T16:32:23.543Z,-11380.88
2023-04-21T16:35:29.912Z,-11374.97
2023-04-21T16:38:36.112Z,-11367.34
2023-04-21T16:41:42.097Z,-11367.63
2023-04-21T16:44:50.882Z,-11362.28
2023-04-21T16:47:57.541Z,-11362.69
2023-04-21T16:51:03.976Z,-11366.22
2023-04-21T16:54:10.038Z,-11359.47
2023-04-21T16:57:16.720Z,-11351.00
2023-04-21T17:00:24.818Z,-11344.53
2023-04-21T17:03:31.612Z,-11342.84
2023-04-21T17:06:37.975Z,-11342.00
2023-04-21T17:09:44.519Z,-11336.38
2023-04-21T17:12:51.088Z,-11341.00
2023-04-21T17:15:59.289Z,-11332.13
2023-04-21T17:19:05.741Z,-11327.34
2023-04-21T17:22:12.108Z,-11329.31
2023-04-21T17:25:18.362Z,-11322.69
2023-04-21T17:28:24.780Z,-11322.56
2023-04-21T17:31:33.966Z,-11322.13
2023-04-21T17:34:40.545Z,-11316.22
2023-04-21T17:37:46.979Z,-11303.84
2023-04-21T17:40:53.640Z,-11280.47
2023-04-21T17:44:01.035Z,-11275.81
2023-04-21T17:47:09.481Z,-11285.41
2023-04-21T17:50:16.045Z,-11287.06
2023-04-21T17:53:22.568Z,-11277.22
2023-04-21T17:56:29.053Z,-11281.16
2023-04-21T17:59:35.427Z,-11270.19
2023-04-21T18:02:42.846Z,-11271.03
2023-04-21T18:05:49.094Z,-11266.81
2023-04-21T18:08:55.987Z,-11264.28
2023-04-21T18:12:02.019Z,-11262.44
2023-04-21T18:15:10.548Z,-11265.69
2023-04-21T18:18:18.051Z,-11250.91
2023-04-21T18:21:24.656Z,-11253.88
2023-04-21T18:24:30.933Z,-11254.00
2023-04-21T18:27:37.192Z,-11247.69
2023-04-21T18:30:44.073Z,-11240.22
2023-04-21T18:33:51.798Z,-11235.44
2023-04-21T18:36:58.392Z,-11246.28
2023-04-21T18:40:05.684Z,-11240.63
2023-04-21T18:43:12.182Z,-11239.66
2023-04-21T18:46:18.387Z,-11238.94
2023-04-21T18:49:26.480Z,-11240.34
2023-04-21T18:52:32.666Z,-11239.78
2023-04-21T18:55:39.053Z,-11239.09
2023-04-21T18:58:45.613Z,-11227.69
2023-04-21T19:01:52.163Z,-11220.09
2023-04-21T19:04:59.949Z,-11235.03
2023-04-21T19:08:06.647Z,-11245.00
2023-04-21T19:11:14.550Z,-11223.47
2023-04-21T19:14:20.880Z,-11234.59
2023-04-21T19:17:27.167Z,-11227.69
2023-04-21T19:20:35.926Z,-11227.69
2023-04-21T19:23:42.332Z,-11233.47
2023-04-21T19:26:48.517Z,-11232.19
2023-04-21T19:29:54.640Z,-11233.88
2023-04-21T19:33:00.617Z,-11237.28
2023-04-21T19:36:08.155Z,-11237.28
2023-04-21T19:39:14.416Z,-11236.84
2023-04-21T19:42:20.382Z,-11235.03
2023-04-21T19:45:27.402Z,-11232.19
2023-04-21T19:48:33.405Z,-11220.66
2023-04-21T19:51:41.226Z,-11211.81
2023-04-21T19:54:47.220Z,-11202.25
2023-04-21T19:57:53.285Z,-11211.09
2023-04-21T20:00:59.683Z,-11212.94
2023-04-21T20:04:06.919Z,-11206.19
2023-04-21T20:07:14.966Z,-11212.50
2023-04-21T20:10:22.130Z,-11215.47
2023-04-21T20:13:27.930Z,-11219.41
2023-04-21T20:16:34.391Z,-11207.03
2023-04-21T20:19:40.868Z,-11203.78
2023-04-21T20:22:48.963Z,-11189.72
2023-04-21T20:25:55.088Z,-11184.66
2023-04-21T20:29:01.080Z,-11194.38
2023-04-21T20:32:07.130Z,-11189.16
2023-04-21T20:35:16.860Z,-11194.78
2023-04-21T20:38:25.104Z,-11207.16
2023-04-21T20:41:31.442Z,-11210.41
2023-04-21T20:44:38.814Z,-11204.34
2023-04-21T20:47:45.282Z,-11170.75
2023-04-21T20:50:51.512Z,-11171.59
2023-04-21T20:53:59.610Z,-11172.03
2023-04-21T20:57:07.653Z,-11178.06
2023-04-21T21:00:14.498Z,-11164.16
2023-04-21T21:03:21.033Z,-11174.81
2023-04-21T21:06:27.514Z,-11186.34
2023-04-21T21:09:35.059Z,-11191.13
2023-04-21T21:12:41.572Z,-11191.56
2023-04-21T21:15:47.859Z,-11195.22
2023-04-21T21:18:53.858Z,-11187.75
2023-04-21T21:22:00.178Z,-11175.94
2023-04-21T21:25:08.166Z,-11182.69
2023-04-21T21:28:14.554Z,-11175.66
2023-04-21T21:31:20.788Z,-11183.25
2023-04-21T21:34:26.998Z,-11200.13
2023-04-21T21:37:33.549Z,-11205.19
2023-04-21T21:40:41.137Z,-11207.88
2023-04-21T21:43:47.056Z,-11206.03
2023-04-21T21:46:53.096Z,-11175.25
2023-04-21T21:49:59.259Z,-11185.50
2023-04-21T21:53:05.349Z,-11197.88
2023-04-21T21:56:13.450Z,-11197.88
2023-04-21T21:59:19.315Z,-11202.53
2023-04-21T22:02:25.706Z,-11193.81
2023-04-21T22:05:31.682Z,-11194.22
2023-04-21T22:08:37.940Z,-11188.03
2023-04-21T22:11:46.312Z,-11183.81
2023-04-21T22:14:53.037Z,-11193.09
2023-04-21T22:17:59.258Z,-11191.41
2023-04-21T22:21:05.852Z,-11192.97
2023-04-21T22:24:12.265Z,-11196.75
2023-04-21T22:27:20.075Z,-11194.22
2023-04-21T22:30:26.980Z,-11194.66
2023-04-21T22:33:33.028Z,-11178.06
2023-04-21T22:36:39.159Z,-11157.41
2023-04-21T22:39:45.998Z,-11156.69
2023-04-21T22:42:53.337Z,-11174.25
2023-04-21T22:46:00.353Z,-11184.09
2023-04-21T22:49:06.808Z,-11183.69
2023-04-21T22:52:12.973Z,-11184.94
2023-04-21T22:55:19.352Z,-11183.97
2023-04-21T22:58:27.487Z,-11181.56
2023-04-21T23:01:33.451Z,-11177.91
2023-04-21T23:04:39.795Z,-11164.16
2023-04-21T23:07:46.117Z,-11166.69
2023-04-21T23:10:52.867Z,-11168.94
2023-04-21T23:14:00.358Z,-11151.50
2023-04-21T23:17:06.699Z,-11146.84
2023-04-21T23:20:13.465Z,-11141.09
2023-04-21T23:23:20.203Z,-11146.00
2023-04-21T23:26:26.484Z,-11154.59
2023-04-21T23:29:33.859Z,-11163.88
2023-04-21T23:32:40.243Z,-11171.31
2023-04-21T23:35:46.463Z,-11173.00
2023-04-21T23:38:52.578Z,-11172.03
2023-04-21T23:41:58.953Z,-11173.16
2023-04-21T23:45:08.019Z,-11175.09
2023-04-21T23:48:14.030Z,-11173.97
2023-04-21T23:51:20.428Z,-11166.69
2023-04-21T23:54:26.690Z,-11173.00
2023-04-21T23:57:32.726Z,-11163.88
